createdAt,value
2022-09-01T00:00:15.325Z,2.60
2022-09-01T00:03:01.746Z,1.30
2022-09-01T00:05:33.049Z,1.70
2022-09-01T00:08:01.506Z,1.70
2022-09-01T00:10:30.113Z,1.90
2022-09-01T00:12:59.005Z,2.30
2022-09-01T00:15:27.732Z,2.10
2022-09-01T00:17:55.869Z,1.30
2022-09-01T00:20:23.997Z,2.20
2022-09-01T00:22:52.524Z,1.60
2022-09-01T00:25:21.508Z,1.70
2022-09-01T00:27:50.302Z,2.40
2022-09-01T00:30:20.090Z,3.10
2022-09-01T00:32:48.596Z,3.00
2022-09-01T00:35:20.336Z,3.30
2022-09-01T00:37:48.894Z,2.30
2022-09-01T00:40:18.548Z,4.00
2022-09-01T00:42:49.415Z,3.00
2022-09-01T00:45:21.756Z,4.60
2022-09-01T00:47:51.262Z,1.90
2022-09-01T00:50:21.511Z,3.50
2022-09-01T00:52:55.926Z,2.10
2022-09-01T00:55:33.556Z,3.00
2022-09-01T00:58:03.744Z,2.00
2022-09-01T01:00:40.956Z,2.80
2022-09-01T01:03:12.767Z,3.20
2022-09-01T01:05:54.397Z,2.90
2022-09-01T01:08:34.616Z,1.90
2022-09-01T01:11:18.110Z,4.30
2022-09-01T01:14:01.092Z,3.00
2022-09-01T01:16:29.867Z,3.50
2022-09-01T01:18:59.554Z,2.80
2022-09-01T01:22:01.293Z,3.20
2022-09-01T01:24:35.402Z,2.50
2022-09-01T01:27:05.424Z,3.00
2022-09-01T01:29:40.050Z,3.30
2022-09-01T01:34:43.666Z,3.00
2022-09-01T01:37:17.086Z,3.30
2022-09-01T01:39:45.066Z,2.00
2022-09-01T01:42:13.757Z,1.90
2022-09-01T01:44:42.773Z,2.90
2022-09-01T01:47:13.826Z,3.40
2022-09-01T01:49:45.355Z,1.70
2022-09-01T01:52:16.426Z,2.60
2022-09-01T01:54:47.718Z,2.40
2022-09-01T01:57:17.463Z,2.00
2022-09-01T01:59:47.214Z,2.70
2022-09-01T02:02:15.838Z,2.40
2022-09-01T02:04:43.863Z,3.60
2022-09-01T02:07:14.018Z,2.80
2022-09-01T02:09:46.385Z,5.70
2022-09-01T02:14:48.689Z,2.70
2022-09-01T02:17:17.909Z,3.20
2022-09-01T02:19:47.805Z,1.80
2022-09-01T02:22:15.791Z,3.00
2022-09-01T02:24:49.303Z,2.70
2022-09-01T02:27:22.078Z,2.70
2022-09-01T02:29:55.701Z,3.70
2022-09-01T02:32:24.041Z,2.70
2022-09-01T02:34:54.004Z,4.30
2022-09-01T02:37:25.860Z,3.30
2022-09-01T02:39:57.804Z,4.80
2022-09-01T02:42:30.380Z,3.30
2022-09-01T02:44:58.936Z,3.80
2022-09-01T02:47:29.748Z,5.20
2022-09-01T02:50:01.433Z,2.00
2022-09-01T02:52:35.693Z,3.00
2022-09-01T02:55:05.174Z,2.20
2022-09-01T02:57:34.607Z,3.60
2022-09-01T03:00:21.053Z,1.90
2022-09-01T03:02:52.914Z,3.50
2022-09-01T03:05:27.216Z,2.90
2022-09-01T03:08:00.664Z,3.80
2022-09-01T03:10:36.362Z,2.90
2022-09-01T03:13:12.232Z,3.00
2022-09-01T03:15:41.785Z,2.60
2022-09-01T03:18:13.042Z,2.30
2022-09-01T03:20:46.520Z,1.60
2022-09-01T03:23:19.472Z,3.10
2022-09-01T03:25:48.976Z,2.00
2022-09-01T03:28:17.748Z,3.60
2022-09-01T03:30:53.005Z,2.60
2022-09-01T03:33:25.440Z,3.00
2022-09-01T03:35:56.521Z,2.20
2022-09-01T03:38:26.697Z,2.30
2022-09-01T03:41:02.416Z,5.10
2022-09-01T03:43:35.655Z,3.40
2022-09-01T03:46:04.955Z,4.20
2022-09-01T03:48:33.181Z,3.10
2022-09-01T03:51:02.916Z,2.60
2022-09-01T03:53:37.777Z,3.20
2022-09-01T03:56:09.011Z,2.30
2022-09-01T03:58:38.477Z,4.30
2022-09-01T04:01:09.561Z,4.50
2022-09-01T04:03:45.425Z,4.00
2022-09-01T04:06:14.169Z,3.50
2022-09-01T04:08:43.071Z,2.40
2022-09-01T04:11:24.480Z,2.80
2022-09-01T04:13:53.823Z,2.60
2022-09-01T04:16:50.269Z,3.70
2022-09-01T04:19:26.727Z,5.20
2022-09-01T04:22:01.145Z,3.90
2022-09-01T04:24:35.024Z,3.40
2022-09-01T04:27:04.479Z,4.30
2022-09-01T04:29:33.489Z,3.40
2022-09-01T04:32:09.830Z,3.90
2022-09-01T04:34:41.854Z,4.70
2022-09-01T04:37:20.432Z,3.70
2022-09-01T04:39:56.831Z,6.20
2022-09-01T04:42:29.576Z,4.10
2022-09-01T04:45:02.469Z,4.90
2022-09-01T04:47:42.343Z,4.00
2022-09-01T04:50:14.898Z,4.60
2022-09-01T04:53:07.395Z,4.40
2022-09-01T04:55:49.791Z,3.70
2022-09-01T04:58:22.604Z,4.00
2022-09-01T05:00:56.108Z,3.10
2022-09-01T05:03:25.233Z,3.40
2022-09-01T05:06:04.065Z,3.30
2022-09-01T05:08:36.402Z,7.30
2022-09-01T05:11:17.949Z,4.50
2022-09-01T05:13:50.000Z,4.50
2022-09-01T05:16:25.153Z,4.20
2022-09-01T05:18:58.414Z,4.40
2022-09-01T05:21:31.264Z,3.10
2022-09-01T05:24:01.626Z,5.10
2022-09-01T05:26:34.782Z,4.50
2022-09-01T05:29:13.535Z,3.90
2022-09-01T05:31:45.370Z,10.10
2022-09-01T05:34:23.364Z,6.70
2022-09-01T05:36:51.840Z,6.50
2022-09-01T05:39:21.042Z,5.30
2022-09-01T05:41:50.179Z,4.20
2022-09-01T05:44:25.270Z,7.90
2022-09-01T05:47:00.234Z,5.60
2022-09-01T05:49:33.498Z,8.40
2022-09-01T05:52:09.338Z,5.80
2022-09-01T05:54:40.393Z,7.90
2022-09-01T05:57:32.597Z,4.90
2022-09-01T05:59:56.972Z,4.90
2022-09-01T06:02:27.638Z,6.00
2022-09-01T06:04:57.564Z,4.80
2022-09-01T06:07:30.659Z,4.10
2022-09-01T06:10:01.385Z,7.90
2022-09-01T06:12:29.487Z,6.70
2022-09-01T06:14:59.210Z,7.10
2022-09-01T06:17:31.915Z,4.10
2022-09-01T06:20:10.839Z,5.40
2022-09-01T06:22:41.305Z,6.30
2022-09-01T06:25:10.610Z,4.20
2022-09-01T06:27:42.767Z,5.00
2022-09-01T06:30:23.810Z,5.50
2022-09-01T06:33:09.439Z,3.90
2022-09-01T06:35:40.623Z,3.20
2022-09-01T06:38:17.754Z,7.00
2022-09-01T06:40:48.569Z,3.90
2022-09-01T06:43:20.644Z,6.20
2022-09-01T06:45:54.963Z,7.10
2022-09-01T06:48:27.791Z,3.30
2022-09-01T06:51:20.207Z,3.50
2022-09-01T06:53:56.912Z,3.50
2022-09-01T06:56:32.156Z,4.30
2022-09-01T06:59:04.398Z,6.60
2022-09-01T07:01:35.974Z,4.50
2022-09-01T07:04:05.019Z,3.90
2022-09-01T07:10:05.947Z,6.00
2022-09-01T07:18:34.859Z,5.00
2022-09-01T07:21:38.412Z,3.40
2022-09-01T07:24:13.677Z,3.50
2022-09-01T07:26:55.633Z,4.00
2022-09-01T07:29:26.008Z,2.70
2022-09-01T07:34:47.740Z,4.00
2022-09-01T07:42:30.159Z,4.10
2022-09-01T07:43:44.811Z,2.30
2022-09-01T07:46:46.567Z,4.20
2022-09-01T07:50:07.968Z,2.60
2022-09-01T07:52:07.685Z,4.90
2022-09-01T07:54:37.647Z,2.10
2022-09-01T07:57:05.947Z,2.30
2022-09-01T07:59:36.369Z,2.40
2022-09-01T08:02:30.468Z,3.60
2022-09-01T08:04:59.249Z,2.50
2022-09-01T08:07:27.670Z,2.50
2022-09-01T08:09:56.404Z,2.60
2022-09-01T08:12:32.208Z,2.60
2022-09-01T08:17:53.029Z,1.30
2022-09-01T08:20:23.597Z,3.20
2022-09-01T08:23:04.814Z,1.70
2022-09-01T08:25:37.283Z,2.20
2022-09-01T08:28:07.046Z,1.90
2022-09-01T08:30:36.088Z,1.50
2022-09-01T08:33:12.173Z,2.00
2022-09-01T08:35:49.390Z,1.90
2022-09-01T08:38:19.446Z,2.30
2022-09-01T08:40:57.584Z,1.40
2022-09-01T08:44:01.238Z,2.00
2022-09-01T08:46:38.222Z,2.20
2022-09-01T08:49:26.442Z,2.50
2022-09-01T08:52:46.938Z,1.90
2022-09-01T08:55:39.338Z,2.30
2022-09-01T08:58:12.270Z,1.60
2022-09-01T09:01:02.649Z,1.50
2022-09-01T09:03:43.248Z,1.50
2022-09-01T09:06:20.061Z,1.40
2022-09-01T09:09:05.288Z,1.50
2022-09-01T09:12:04.478Z,1.80
2022-09-01T09:15:02.362Z,2.00
2022-09-01T09:17:40.433Z,1.40
2022-09-01T09:20:09.562Z,1.70
2022-09-01T09:22:38.981Z,1.50
2022-09-01T09:25:17.517Z,1.30
2022-09-01T09:28:00.311Z,1.20
2022-09-01T09:30:32.342Z,1.40
2022-09-01T09:35:55.166Z,2.10
2022-09-01T09:38:29.462Z,2.20
2022-09-01T09:41:20.601Z,2.30
2022-09-01T09:44:12.018Z,2.20
2022-09-01T09:46:44.350Z,2.90
2022-09-01T09:49:36.685Z,1.50
2022-09-01T09:52:08.978Z,1.40
2022-09-01T09:55:06.496Z,1.60
2022-09-01T09:57:42.075Z,1.60
2022-09-01T10:00:24.058Z,1.60
2022-09-01T10:02:57.929Z,2.00
2022-09-01T10:05:52.043Z,1.70
2022-09-01T10:08:35.189Z,1.40
2022-09-01T10:11:06.200Z,2.60
2022-09-01T10:13:37.025Z,2.30
2022-09-01T10:16:38.346Z,3.10
2022-09-01T10:19:13.062Z,2.90
2022-09-01T10:21:46.849Z,1.60
2022-09-01T10:24:38.790Z,1.50
2022-09-01T10:27:20.092Z,1.60
2022-09-01T10:30:20.059Z,2.90
2022-09-01T10:33:03.458Z,2.70
2022-09-01T10:35:42.839Z,2.50
2022-09-01T10:38:29.639Z,1.50
2022-09-01T10:41:14.109Z,1.90
2022-09-01T10:46:25.835Z,2.30
2022-09-01T10:49:03.134Z,1.50
2022-09-01T10:51:38.335Z,1.40
2022-09-01T10:56:52.689Z,1.90
2022-09-01T10:59:33.789Z,1.60
2022-09-01T11:02:27.116Z,1.70
2022-09-01T11:04:59.424Z,1.60
2022-09-01T11:08:00.605Z,1.30
2022-09-01T11:10:37.609Z,1.70
2022-09-01T11:13:26.570Z,1.10
2022-09-01T11:15:55.109Z,1.30
2022-09-01T11:18:31.679Z,1.10
2022-09-01T11:21:29.425Z,1.20
2022-09-01T11:24:52.025Z,3.00
2022-09-01T11:27:51.280Z,2.10
2022-09-01T11:30:51.037Z,1.00
2022-09-01T11:33:53.364Z,1.70
2022-09-01T11:36:44.912Z,1.20
2022-09-01T11:39:19.003Z,1.10
2022-09-01T11:42:00.859Z,1.70
2022-09-01T11:45:05.118Z,0.90
2022-09-01T11:47:43.466Z,1.10
2022-09-01T11:50:22.075Z,1.40
2022-09-01T11:53:07.678Z,2.00
2022-09-01T11:55:49.085Z,1.90
2022-09-01T11:58:27.985Z,1.50
2022-09-01T12:01:11.517Z,1.00
2022-09-01T12:03:41.180Z,2.10
2022-09-01T12:06:18.271Z,2.30
2022-09-01T12:08:58.320Z,1.20
2022-09-01T12:11:31.633Z,1.30
2022-09-01T12:14:12.067Z,1.10
2022-09-01T12:16:42.613Z,1.90
2022-09-01T12:19:26.862Z,1.80
2022-09-01T12:22:18.831Z,1.30
2022-09-01T12:24:52.128Z,2.40
2022-09-01T12:27:23.649Z,1.10
2022-09-01T12:29:52.367Z,1.70
2022-09-01T12:32:20.937Z,1.10
2022-09-01T12:35:11.085Z,1.10
2022-09-01T12:37:40.017Z,0.90
2022-09-01T12:40:36.303Z,1.00
2022-09-01T12:43:04.338Z,2.70
2022-09-01T12:45:47.938Z,1.50
2022-09-01T12:48:33.781Z,1.10
2022-09-01T12:51:25.563Z,1.00
2022-09-01T12:54:04.894Z,1.40
2022-09-01T12:56:36.198Z,1.00
2022-09-01T12:59:36.307Z,2.20
2022-09-01T13:02:35.530Z,0.90
2022-09-01T13:05:29.925Z,0.90
2022-09-01T13:08:07.662Z,1.20
2022-09-01T13:10:51.772Z,1.50
2022-09-01T13:13:24.293Z,1.20
2022-09-01T13:15:57.150Z,1.40
2022-09-01T13:18:27.224Z,1.10
2022-09-01T13:20:58.078Z,1.40
2022-09-01T13:23:26.829Z,0.90
2022-09-01T13:25:55.009Z,3.10
2022-09-01T13:34:10.852Z,1.00
2022-09-01T13:36:47.227Z,1.30
2022-09-01T13:39:18.767Z,2.40
2022-09-01T13:41:48.162Z,1.30
2022-09-01T13:44:18.226Z,1.00
2022-09-01T13:52:24.815Z,1.70
2022-09-01T13:54:52.959Z,2.20
2022-09-01T13:57:21.420Z,2.00
2022-09-01T13:59:49.762Z,1.40
2022-09-01T14:02:17.788Z,1.20
2022-09-01T14:04:47.760Z,1.20
2022-09-01T14:07:16.341Z,1.60
2022-09-01T14:09:46.654Z,1.40
2022-09-01T14:12:14.888Z,3.20
2022-09-01T14:15:16.174Z,1.30
2022-09-01T14:17:31.306Z,1.30
2022-09-01T14:19:59.403Z,1.80
2022-09-01T14:22:28.170Z,1.00
2022-09-01T14:24:56.257Z,1.20
2022-09-01T14:27:24.278Z,1.50
2022-09-01T14:29:54.649Z,1.50
2022-09-01T14:32:27.072Z,1.80
2022-09-01T14:34:57.558Z,1.10
2022-09-01T14:37:26.189Z,1.50
2022-09-01T14:39:58.023Z,2.30
2022-09-01T14:42:29.182Z,3.40
2022-09-01T14:44:57.733Z,1.50
2022-09-01T14:47:26.330Z,1.40
2022-09-01T14:49:56.646Z,1.50
2022-09-01T14:52:25.133Z,2.30
2022-09-01T14:54:53.224Z,1.00
2022-09-01T14:57:31.380Z,1.10
2022-09-01T15:00:12.671Z,2.80
2022-09-01T15:02:44.133Z,1.60
2022-09-01T15:05:14.580Z,1.40
2022-09-01T15:07:43.690Z,1.70
2022-09-01T15:10:24.428Z,1.00
2022-09-01T15:12:56.908Z,1.20
2022-09-01T15:15:27.606Z,1.40
2022-09-01T15:17:57.260Z,2.30
2022-09-01T15:20:44.780Z,1.50
2022-09-01T15:23:26.061Z,1.50
2022-09-01T15:25:56.131Z,3.60
2022-09-01T15:28:26.135Z,1.50
2022-09-01T15:30:54.650Z,2.10
2022-09-01T15:33:23.141Z,1.60
2022-09-01T15:35:51.617Z,3.20
2022-09-01T15:38:23.465Z,1.80
2022-09-01T15:40:58.312Z,2.00
2022-09-01T15:43:29.491Z,2.10
2022-09-01T15:46:00.728Z,1.00
2022-09-01T15:48:29.327Z,2.90
2022-09-01T15:51:32.571Z,1.00
2022-09-01T15:54:14.688Z,2.40
2022-09-01T15:56:44.288Z,2.00
2022-09-01T15:59:13.969Z,2.10
2022-09-01T16:01:45.771Z,2.10
2022-09-01T16:04:19.895Z,2.60
2022-09-01T16:06:51.107Z,2.50
2022-09-01T16:09:21.507Z,1.50
2022-09-01T16:11:49.986Z,1.40
2022-09-01T16:14:20.954Z,1.00
2022-09-01T16:17:05.481Z,2.60
2022-09-01T16:19:45.778Z,1.40
2022-09-01T16:22:33.489Z,1.10
2022-09-01T16:25:14.636Z,1.40
2022-09-01T16:27:46.607Z,1.30
2022-09-01T16:30:29.735Z,4.60
2022-09-01T16:33:03.552Z,1.50
2022-09-01T16:35:49.271Z,4.00
2022-09-01T16:38:52.850Z,2.20
2022-09-01T16:41:58.927Z,1.30
2022-09-01T16:44:45.087Z,1.10
2022-09-01T16:47:51.465Z,2.00
2022-09-01T16:50:34.158Z,1.70
2022-09-01T16:53:14.257Z,2.50
2022-09-01T16:56:12.004Z,1.60
2022-09-01T17:02:17.488Z,3.30
2022-09-01T17:04:53.697Z,2.40
2022-09-01T17:07:38.535Z,1.40
2022-09-01T17:10:16.732Z,1.60
2022-09-01T17:12:56.271Z,1.50
2022-09-01T17:15:41.118Z,1.70
2022-09-01T17:21:02.343Z,1.30
2022-09-01T17:23:40.078Z,1.70
2022-09-01T17:26:24.053Z,1.50
2022-09-01T17:29:07.762Z,1.30
2022-09-01T17:32:22.012Z,1.30
2022-09-01T17:35:11.339Z,2.00
2022-09-01T17:38:07.516Z,2.80
2022-09-01T17:41:08.100Z,2.20
2022-09-01T17:44:12.716Z,2.60
2022-09-01T17:47:00.311Z,2.10
2022-09-01T17:50:11.014Z,2.10
2022-09-01T17:53:10.013Z,2.40
2022-09-01T17:56:03.860Z,3.80
2022-09-01T17:58:38.214Z,2.70
2022-09-01T18:01:23.648Z,3.90
2022-09-01T18:04:15.210Z,3.50
2022-09-01T18:06:59.651Z,5.10
2022-09-01T18:09:34.611Z,3.80
2022-09-01T18:12:10.911Z,3.30
2022-09-01T18:15:09.093Z,3.10
2022-09-01T18:17:48.035Z,3.00
2022-09-01T18:20:29.690Z,4.70
2022-09-01T18:23:12.500Z,3.60
2022-09-01T18:25:54.134Z,3.50
2022-09-01T18:28:22.442Z,5.20
2022-09-01T18:31:18.071Z,4.00
2022-09-01T18:34:14.194Z,4.60
2022-09-01T18:36:54.003Z,4.30
2022-09-01T18:39:57.633Z,4.20
2022-09-01T18:42:57.780Z,3.10
2022-09-01T18:45:45.486Z,3.60
2022-09-01T18:48:39.978Z,3.70
2022-09-01T18:52:14.581Z,2.20
2022-09-01T18:54:55.781Z,3.30
2022-09-01T18:57:36.173Z,4.40
2022-09-01T19:00:30.546Z,3.30
2022-09-01T19:03:18.450Z,2.50
2022-09-01T19:06:22.058Z,2.70
2022-09-01T19:09:06.718Z,3.30
2022-09-01T19:11:37.555Z,4.80
2022-09-01T19:14:12.136Z,4.40
2022-09-01T19:17:09.130Z,2.80
2022-09-01T19:19:58.010Z,3.10
2022-09-01T19:22:59.829Z,5.60
2022-09-01T19:25:37.082Z,5.50
2022-09-01T19:28:30.050Z,4.30
2022-09-01T19:31:18.068Z,3.60
2022-09-01T19:33:58.497Z,5.40
2022-09-01T19:36:55.860Z,3.70
2022-09-01T19:39:31.659Z,4.00
2022-09-01T19:42:32.652Z,5.90
2022-09-01T19:45:12.979Z,5.20
2022-09-01T19:48:15.585Z,3.90
2022-09-01T19:51:20.327Z,4.70
2022-09-01T19:53:50.997Z,6.00
2022-09-01T19:56:37.441Z,4.20
2022-09-01T19:59:25.427Z,4.10
2022-09-01T20:02:01.007Z,3.10
2022-09-01T20:04:59.885Z,4.60
2022-09-01T20:07:44.630Z,4.10
2022-09-01T20:10:37.865Z,4.00
2022-09-01T20:13:34.651Z,3.90
2022-09-01T20:16:27.588Z,3.90
2022-09-01T20:19:06.421Z,4.10
2022-09-01T20:21:40.120Z,4.00
2022-09-01T20:24:33.795Z,2.70
2022-09-01T20:27:24.350Z,5.50
2022-09-01T20:30:05.172Z,3.60
2022-09-01T20:33:36.944Z,4.30
2022-09-01T20:36:33.565Z,5.50
2022-09-01T20:39:29.243Z,4.00
2022-09-01T20:42:08.453Z,3.80
2022-09-01T20:44:57.869Z,4.00
2022-09-01T20:47:31.575Z,4.00
2022-09-01T20:50:03.274Z,4.20
2022-09-01T20:53:09.521Z,4.50
2022-09-01T20:55:46.159Z,3.00
2022-09-01T20:58:37.098Z,4.00
2022-09-01T21:01:25.676Z,3.30
2022-09-01T21:04:21.753Z,5.30
2022-09-01T21:07:05.088Z,4.30
2022-09-01T21:10:04.500Z,3.90
2022-09-01T21:12:38.521Z,3.50
2022-09-01T21:15:53.906Z,3.70
2022-09-01T21:18:55.309Z,4.00
2022-09-01T21:22:01.062Z,3.70
2022-09-01T21:24:29.175Z,4.30
2022-09-01T21:27:01.430Z,3.30
2022-09-01T21:29:45.815Z,3.00
2022-09-01T21:32:16.109Z,3.80
2022-09-01T21:34:46.460Z,2.60
2022-09-01T21:37:15.355Z,4.00
2022-09-01T21:39:43.795Z,3.50
2022-09-01T21:42:13.766Z,3.80
2022-09-01T21:44:44.737Z,3.00
2022-09-01T21:47:13.663Z,3.00
2022-09-01T21:49:42.143Z,2.50
2022-09-01T21:52:10.520Z,3.40
2022-09-01T21:54:38.727Z,3.20
2022-09-01T21:57:07.424Z,4.00
2022-09-01T21:59:35.483Z,3.20
2022-09-01T22:02:06.004Z,4.00
2022-09-01T22:04:38.749Z,2.80
2022-09-01T22:07:12.289Z,4.00
2022-09-01T22:09:40.379Z,2.90
2022-09-01T22:12:08.323Z,4.00
2022-09-01T22:14:37.280Z,2.80
2022-09-01T22:17:05.630Z,3.00
2022-09-01T22:19:37.127Z,3.00
2022-09-01T22:22:05.939Z,3.00
2022-09-01T22:24:34.113Z,2.40
2022-09-01T22:27:02.097Z,2.70
2022-09-01T22:29:30.162Z,2.80
2022-09-01T22:32:00.455Z,2.20
2022-09-01T22:34:28.733Z,2.80
2022-09-01T22:36:57.060Z,2.80
2022-09-01T22:39:25.339Z,2.70
2022-09-01T22:41:55.403Z,2.40
2022-09-01T22:44:23.693Z,2.90
2022-09-01T22:46:51.918Z,2.40
2022-09-01T22:49:20.192Z,3.20
2022-09-01T22:51:48.344Z,2.70
2022-09-01T22:54:17.121Z,3.00
2022-09-01T22:56:45.283Z,2.90
2022-09-01T22:59:15.479Z,2.60
2022-09-01T23:01:47.785Z,3.80
2022-09-01T23:04:18.550Z,3.10
2022-09-01T23:06:52.330Z,3.60
2022-09-01T23:09:21.807Z,2.60
2022-09-01T23:11:50.628Z,3.00
2022-09-01T23:14:18.768Z,2.90
2022-09-01T23:16:47.522Z,3.00
2022-09-01T23:19:21.724Z,2.90
2022-09-01T23:21:51.745Z,3.10
2022-09-01T23:24:21.071Z,2.00
2022-09-01T23:26:49.817Z,2.40
2022-09-01T23:29:18.169Z,3.60
2022-09-01T23:31:47.063Z,2.60
2022-09-01T23:34:16.656Z,3.20
2022-09-01T23:36:44.625Z,2.50
2022-09-01T23:39:12.908Z,2.00
2022-09-01T23:41:41.682Z,2.60
2022-09-01T23:44:12.922Z,2.60
2022-09-01T23:46:44.384Z,2.90
2022-09-01T23:49:16.964Z,2.10
2022-09-01T23:51:48.837Z,2.50
2022-09-01T23:54:16.898Z,2.70
2022-09-01T23:56:46.080Z,2.70
2022-09-01T23:59:14.959Z,2.50
